»·PEaware :: N313NJ KSBA-KBUR

N313NJ :: KSBA-KBUR

FLIGHT INFORMATION

Flight Status: Arrived
Operator: Privately registered:
United States
More flights under this callsign
Pilot: Tyler J. (19619)
Aircraft: PIPER PA-46-500TP MALIBU MERIDIAN
(P46T)
More flights by this aircraft type
Origin: KSBA Santa Barbara Mun
United States
Destination: KBUR Bob Hope-Burbank
United States
More flights between these airports :: More routes between these airports
Route: +VNY
File this flight plan on PilotEdge
Remarks:
Altitude:
(Current/Filed)
7,000ft
Speed:
(Current/Filed)
250kts
Departed: 11-Apr-19 07:33 AM
Arrived: 11-Apr-19 08:03 AM
Distance/Time
Traveled:
75nm/0:30
Distance/Time
To Go:
Arrived

Flight Plot

Page will automatically refresh every two minutes.

Flight plan parsing failed; only flown route is shown


Map Options




Map Legend


Flown Route
Filed Route
Departure Airport
Arrival Airport
Navaid (VOR, NDB)
Fix

Horizontal Profiles

Position Reports

Time Latitude Longitude Heading Altitude Ground
Speed
11-Apr-19 07:08 34.429656 -119.844089 56 14ft 0kts
11-Apr-19 07:08 34.429656 -119.844089 56 14ft 0kts
11-Apr-19 07:09 34.429656 -119.844089 56 14ft 0kts
11-Apr-19 07:10 34.429657 -119.844087 56 14ft 0kts
11-Apr-19 07:11 34.429658 -119.844085 56 14ft 0kts
11-Apr-19 07:12 34.429659 -119.844083 56 14ft 0kts
11-Apr-19 07:13 34.429660 -119.844081 56 14ft 0kts
11-Apr-19 07:14 34.429661 -119.844080 56 14ft 0kts
11-Apr-19 07:15 34.429662 -119.844078 56 14ft 0kts
11-Apr-19 07:16 34.429663 -119.844076 56 14ft 0kts
11-Apr-19 07:17 34.429664 -119.844074 56 14ft 0kts
11-Apr-19 07:18 34.429665 -119.844072 56 14ft 0kts
11-Apr-19 07:19 34.429666 -119.844070 56 14ft 0kts
11-Apr-19 07:20 34.429667 -119.844068 56 14ft 0kts
11-Apr-19 07:21 34.429669 -119.844065 56 14ft 0kts
11-Apr-19 07:22 34.429680 -119.844012 91 14ft 0kts
11-Apr-19 07:23 34.429680 -119.844012 91 14ft 0kts
11-Apr-19 07:24 34.429680 -119.844012 91 14ft 0kts
11-Apr-19 07:25 34.429680 -119.844012 91 14ft 0kts
11-Apr-19 07:26 34.429680 -119.844009 91 14ft 0kts
11-Apr-19 07:27 34.429595 -119.843672 89 14ft 0kts
11-Apr-19 07:28 34.428999 -119.842016 130 14ft 11kts
11-Apr-19 07:29 34.429035 -119.837205 88 14ft 22kts
11-Apr-19 07:30 34.428623 -119.835209 178 14ft 0kts
11-Apr-19 07:31 34.428606 -119.835209 178 14ft 0kts
11-Apr-19 07:32 34.427880 -119.836911 274 14ft 45kts
11-Apr-19 07:33 34.427548 -119.869354 272 1320ft 85kts
11-Apr-19 07:34 34.426552 -119.908275 270 1497ft 120kts
11-Apr-19 07:35 34.397354 -119.911272 115 2175ft 174kts
11-Apr-19 07:36 34.383528 -119.853805 101 3701ft 182kts
11-Apr-19 07:37 34.372382 -119.794220 84 5203ft 180kts
11-Apr-19 07:38 34.370739 -119.733576 83 6703ft 180kts
11-Apr-19 07:39 34.367654 -119.671228 86 7497ft 190kts
11-Apr-19 07:40 34.362227 -119.606546 88 7505ft 194kts
11-Apr-19 07:41 34.367319 -119.543906 70 7504ft 186kts
11-Apr-19 07:42 34.371613 -119.480293 86 7513ft 194kts
11-Apr-19 07:43 34.364776 -119.415124 92 7512ft 194kts
11-Apr-19 07:44 34.355510 -119.350584 93 7513ft 194kts
11-Apr-19 07:45 34.345846 -119.286518 94 7515ft 193kts
11-Apr-19 07:46 34.336065 -119.222469 94 7517ft 193kts
11-Apr-19 07:47 34.326255 -119.158567 94 7518ft 192kts
11-Apr-19 07:48 34.316462 -119.095006 94 7519ft 192kts
11-Apr-19 07:49 34.306626 -119.031363 95 7520ft 192kts
11-Apr-19 07:50 34.296780 -118.967931 95 7520ft 192kts
11-Apr-19 07:51 34.287153 -118.906131 95 7523ft 191kts
11-Apr-19 07:52 34.277293 -118.843018 95 7136ft 191kts
11-Apr-19 07:53 34.267067 -118.777500 100 6469ft 201kts
11-Apr-19 07:54 34.256593 -118.711306 101 5803ft 200kts
11-Apr-19 07:55 34.246470 -118.647250 100 4940ft 189kts
11-Apr-19 07:56 34.236716 -118.585512 102 3940ft 183kts
11-Apr-19 07:57 34.226750 -118.528684 116 3496ft 157kts
11-Apr-19 07:58 34.205690 -118.481421 116 2976ft 151kts
11-Apr-19 07:59 34.198211 -118.434974 91 2028ft 136kts
11-Apr-19 08:00 34.198137 -118.396261 91 1209ft 106kts
11-Apr-19 08:01 34.197765 -118.360890 90 782ft 75kts
11-Apr-19 08:02 34.198680 -118.355300 347 782ft 0kts
11-Apr-19 08:03 34.199296 -118.358380 309 782ft 15kts
11-Apr-19 08:04 34.199987 -118.359296 356 782ft 0kts
11-Apr-19 08:05 34.199987 -118.359296 356 782ft 0kts
11-Apr-19 08:06 34.199987 -118.359296 356 782ft 0kts
11-Apr-19 08:07 34.199987 -118.359296 356 782ft 0kts
11-Apr-19 08:08 34.199987 -118.359296 356 782ft 0kts
11-Apr-19 08:09 34.199987 -118.359296 356 782ft 0kts
11-Apr-19 08:10 34.199987 -118.359296 356 782ft 0kts
11-Apr-19 08:11 34.199987 -118.359296 356 782ft 0kts
11-Apr-19 08:12 34.199987 -118.359296 356 782ft 0kts
11-Apr-19 08:13 34.199987 -118.359296 356 782ft 0kts
11-Apr-19 08:14 34.199987 -118.359296 356 782ft 0kts
11-Apr-19 08:15 34.199987 -118.359296 356 782ft 0kts
11-Apr-19 08:16 34.199987 -118.359296 356 782ft 0kts

Navigation Log

Ident Type
Flight plan parsing failed, navigation log unavailable